Airfield :
LOGIN :

Register | Disclaimer

   EN    FR    IT 

 










Legend :    VFR   Marginal VFR   IFR   Intensive IFR   Very Intensive IFR
Visi :
Ceiling :
>= 8 km
>= 3000ft
5 to 8 km
1000 to 3000 ft
1500m to 5 km
500 to 1000 ft
800 to 1500m
200 to 500 ft
< 800m
< 200 ft
Symbols :   Thunderstorms  Fog  Heavy snow  Heavy precipitations  Wind > 20 kt
SIGMETs :     Misc.  Thunderstorms  Icing  Turbulence  Mountain Waves  Volcanic Ashes






- Airport Elevation : 39 ft
- IATA code : ANR


EBAW - Anvers / Antwerpen Deurne

CURRENT METAR :
  • 262020Z 20010KT CAVOK 08/05 Q1012 NOSIG

EXPIRED METARs :
  • 261950Z 20008KT CAVOK 08/05 Q1012 NOSIG
  • 261920Z 20007KT CAVOK 08/05 Q1013 NOSIG
  • 261850Z 20010KT CAVOK 08/05 Q1013 NOSIG
  • 261820Z 22009KT 190V250 9999 BKN020 08/04 Q1013 NOSIG
  • 261750Z 22011KT 190V250 9999 BKN020 09/05 Q1013 NOSIG

TAF TAF EBAW
Valid from the 26 at 21:00 until the 27 at 06:00 UTC


262010Z 2621/2706 19010KT 9999 FEW020
TEMPO 2622/2706 RA SCT008 BKN012
PROB40
TEMPO 2700/2706 20015G25KT



MET'MAP, your aeronautical weather chart ! - Copyright ORBIFLY December 2007 - Disclaimer

ORBIFLY MET'MAP TEAM :

Programming & Development : Alexandra Zaïnal
Concept & original design : Baudouin d'Aumeries
Assistance for programming : Marc-Olivier Méhu
Technical & hardware support : Manuel Goepfert

Contact : metmap@orbifly.com




SOURCES & CREDITS :

   NOAA